sensor_id;sensor_type;location;lat;lon;timestamp;temperature;humidity
52965;DHT22;42923;53.220;6.528;2024-03-17T00:00:22;4.50;99.90
52965;DHT22;42923;53.220;6.528;2024-03-17T00:02:48;4.50;99.90
52965;DHT22;42923;53.220;6.528;2024-03-17T00:05:15;4.50;99.90
52965;DHT22;42923;53.220;6.528;2024-03-17T00:07:40;4.50;99.90
52965;DHT22;42923;53.220;6.528;2024-03-17T00:10:07;4.50;99.90
52965;DHT22;42923;53.220;6.528;2024-03-17T00:12:36;4.50;99.90
52965;DHT22;42923;53.220;6.528;2024-03-17T00:15:03;4.40;99.90
52965;DHT22;42923;53.220;6.528;2024-03-17T00:17:29;4.40;99.90
52965;DHT22;42923;53.220;6.528;2024-03-17T00:19:55;4.40;99.90
52965;DHT22;42923;53.220;6.528;2024-03-17T00:22:21;5.70;99.90
52965;DHT22;42923;53.220;6.528;2024-03-17T00:24:46;4.20;99.90
52965;DHT22;42923;53.220;6.528;2024-03-17T00:27:12;4.20;99.90
52965;DHT22;42923;53.220;6.528;2024-03-17T00:29:39;4.10;99.90
52965;DHT22;42923;53.220;6.528;2024-03-17T00:32:05;4.10;99.90
52965;DHT22;42923;53.220;6.528;2024-03-17T00:34:32;4.00;99.90
52965;DHT22;42923;53.220;6.528;2024-03-17T00:36:57;4.00;99.90
52965;DHT22;42923;53.220;6.528;2024-03-17T00:39:25;4.00;99.90
52965;DHT22;42923;53.220;6.528;2024-03-17T00:41:51;3.90;99.90
52965;DHT22;42923;53.220;6.528;2024-03-17T00:44:16;3.80;99.90
52965;DHT22;42923;53.220;6.528;2024-03-17T00:46:42;3.80;99.90
52965;DHT22;42923;53.220;6.528;2024-03-17T00:49:09;3.80;99.90
52965;DHT22;42923;53.220;6.528;2024-03-17T00:51:36;3.70;99.90
52965;DHT22;42923;53.220;6.528;2024-03-17T00:54:02;3.60;99.90
52965;DHT22;42923;53.220;6.528;2024-03-17T00:56:27;3.60;99.90
52965;DHT22;42923;53.220;6.528;2024-03-17T00:58:53;3.60;99.90
52965;DHT22;42923;53.220;6.528;2024-03-17T01:01:19;3.50;99.90
52965;DHT22;42923;53.220;6.528;2024-03-17T01:03:45;4.60;99.90
52965;DHT22;42923;53.220;6.528;2024-03-17T01:06:11;3.50;99.90
52965;DHT22;42923;53.220;6.528;2024-03-17T01:08:37;3.50;99.90
52965;DHT22;42923;53.220;6.528;2024-03-17T01:11:03;3.40;99.90
52965;DHT22;42923;53.220;6.528;2024-03-17T01:13:28;3.50;99.90
52965;DHT22;42923;53.220;6.528;2024-03-17T01:15:54;3.40;99.90
52965;DHT22;42923;53.220;6.528;2024-03-17T01:18:20;3.30;99.90
52965;DHT22;42923;53.220;6.528;2024-03-17T01:20:46;3.20;99.90
52965;DHT22;42923;53.220;6.528;2024-03-17T01:23:11;3.20;99.90
52965;DHT22;42923;53.220;6.528;2024-03-17T01:25:38;3.10;99.90
52965;DHT22;42923;53.220;6.528;2024-03-17T01:28:04;3.10;99.90
52965;DHT22;42923;53.220;6.528;2024-03-17T01:30:30;3.10;99.90
52965;DHT22;42923;53.220;6.528;2024-03-17T01:32:58;3.20;99.90
52965;DHT22;42923;53.220;6.528;2024-03-17T01:35:25;3.10;99.90
52965;DHT22;42923;53.220;6.528;2024-03-17T01:37:51;3.10;99.90
52965;DHT22;42923;53.220;6.528;2024-03-17T01:40:17;3.00;99.90
52965;DHT22;42923;53.220;6.528;2024-03-17T01:42:43;4.50;99.90
52965;DHT22;42923;53.220;6.528;2024-03-17T01:45:28;3.10;99.90
52965;DHT22;42923;53.220;6.528;2024-03-17T01:47:55;3.00;99.90
52965;DHT22;42923;53.220;6.528;2024-03-17T01:50:26;2.90;99.90
52965;DHT22;42923;53.220;6.528;2024-03-17T01:52:53;2.90;99.90
52965;DHT22;42923;53.220;6.528;2024-03-17T01:55:22;2.90;99.90
52965;DHT22;42923;53.220;6.528;2024-03-17T01:57:51;2.90;99.90
52965;DHT22;42923;53.220;6.528;2024-03-17T02:00:17;3.50;99.90
52965;DHT22;42923;53.220;6.528;2024-03-17T02:02:43;2.80;99.90
52965;DHT22;42923;53.220;6.528;2024-03-17T02:05:09;2.80;99.90
52965;DHT22;42923;53.220;6.528;2024-03-17T02:07:36;2.70;99.90
52965;DHT22;42923;53.220;6.528;2024-03-17T02:10:01;2.80;99.90
52965;DHT22;42923;53.220;6.528;2024-03-17T02:12:30;2.80;99.90
52965;DHT22;42923;53.220;6.528;2024-03-17T02:15:00;2.70;99.90
52965;DHT22;42923;53.220;6.528;2024-03-17T02:17:26;2.80;99.90
52965;DHT22;42923;53.220;6.528;2024-03-17T02:19:54;2.80;99.90
52965;DHT22;42923;53.220;6.528;2024-03-17T02:22:20;4.30;99.90
52965;DHT22;42923;53.220;6.528;2024-03-17T02:24:46;3.40;99.90
52965;DHT22;42923;53.220;6.528;2024-03-17T02:27:12;2.60;99.90
52965;DHT22;42923;53.220;6.528;2024-03-17T02:29:38;2.70;99.90
52965;DHT22;42923;53.220;6.528;2024-03-17T02:32:07;2.50;99.90
52965;DHT22;42923;53.220;6.528;2024-03-17T02:34:37;2.70;99.90
52965;DHT22;42923;53.220;6.528;2024-03-17T02:37:03;2.70;99.90
52965;DHT22;42923;53.220;6.528;2024-03-17T02:39:30;2.60;99.90
52965;DHT22;42923;53.220;6.528;2024-03-17T02:42:00;2.60;99.90
52965;DHT22;42923;53.220;6.528;2024-03-17T02:44:26;2.70;99.90
52965;DHT22;42923;53.220;6.528;2024-03-17T02:46:52;3.00;99.90
52965;DHT22;42923;53.220;6.528;2024-03-17T02:49:18;2.80;99.90
52965;DHT22;42923;53.220;6.528;2024-03-17T02:51:44;2.70;99.90
52965;DHT22;42923;53.220;6.528;2024-03-17T02:54:09;2.80;99.90
52965;DHT22;42923;53.220;6.528;2024-03-17T02:56:35;2.90;99.90
52965;DHT22;42923;53.220;6.528;2024-03-17T02:59:01;2.90;99.90
52965;DHT22;42923;53.220;6.528;2024-03-17T03:01:27;3.00;99.90
52965;DHT22;42923;53.220;6.528;2024-03-17T03:03:52;3.10;99.90
52965;DHT22;42923;53.220;6.528;2024-03-17T03:06:18;3.20;99.90
52965;DHT22;42923;53.220;6.528;2024-03-17T03:08:45;3.20;99.90
52965;DHT22;42923;53.220;6.528;2024-03-17T03:11:15;3.40;99.90
52965;DHT22;42923;53.220;6.528;2024-03-17T03:13:42;3.40;99.90
52965;DHT22;42923;53.220;6.528;2024-03-17T03:16:10;3.50;99.90
52965;DHT22;42923;53.220;6.528;2024-03-17T03:18:37;3.60;99.90
52965;DHT22;42923;53.220;6.528;2024-03-17T03:21:04;3.70;99.90
52965;DHT22;42923;53.220;6.528;2024-03-17T03:23:31;3.70;99.90
52965;DHT22;42923;53.220;6.528;2024-03-17T03:26:01;4.40;99.90
52965;DHT22;42923;53.220;6.528;2024-03-17T03:28:32;3.80;99.90
52965;DHT22;42923;53.220;6.528;2024-03-17T03:30:59;3.90;99.90
52965;DHT22;42923;53.220;6.528;2024-03-17T03:33:25;4.00;99.90
52965;DHT22;42923;53.220;6.528;2024-03-17T03:35:51;3.90;99.90
52965;DHT22;42923;53.220;6.528;2024-03-17T03:38:17;4.10;99.90
52965;DHT22;42923;53.220;6.528;2024-03-17T03:40:44;4.10;99.90
52965;DHT22;42923;53.220;6.528;2024-03-17T03:43:10;4.20;99.90
52965;DHT22;42923;53.220;6.528;2024-03-17T03:45:36;4.20;99.90
52965;DHT22;42923;53.220;6.528;2024-03-17T03:48:03;4.30;99.90
52965;DHT22;42923;53.220;6.528;2024-03-17T03:50:29;4.40;99.90
52965;DHT22;42923;53.220;6.528;2024-03-17T03:52:55;4.30;99.90
52965;DHT22;42923;53.220;6.528;2024-03-17T03:55:21;4.70;99.90
52965;DHT22;42923;53.220;6.528;2024-03-17T03:57:46;4.40;99.90
52965;DHT22;42923;53.220;6.528;2024-03-17T04:00:14;4.50;99.90
52965;DHT22;42923;53.220;6.528;2024-03-17T04:02:43;4.50;99.90
52965;DHT22;42923;53.220;6.528;2024-03-17T04:05:10;4.60;99.90
52965;DHT22;42923;53.220;6.528;2024-03-17T04:07:36;4.60;99.90
52965;DHT22;42923;53.220;6.528;2024-03-17T04:10:03;4.60;99.90
52965;DHT22;42923;53.220;6.528;2024-03-17T04:12:30;4.70;99.90
52965;DHT22;42923;53.220;6.528;2024-03-17T04:15:00;4.70;99.90
52965;DHT22;42923;53.220;6.528;2024-03-17T04:17:25;3.40;99.90
52965;DHT22;42923;53.220;6.528;2024-03-17T04:19:53;4.70;99.90
52965;DHT22;42923;53.220;6.528;2024-03-17T04:22:20;4.80;99.90
52965;DHT22;42923;53.220;6.528;2024-03-17T04:24:48;4.80;99.90
52965;DHT22;42923;53.220;6.528;2024-03-17T04:27:25;4.80;99.90
52965;DHT22;42923;53.220;6.528;2024-03-17T04:29:54;4.80;99.90
52965;DHT22;42923;53.220;6.528;2024-03-17T04:32:21;4.90;99.90
52965;DHT22;42923;53.220;6.528;2024-03-17T04:34:47;4.90;99.90
52965;DHT22;42923;53.220;6.528;2024-03-17T04:37:13;4.90;99.90
52965;DHT22;42923;53.220;6.528;2024-03-17T04:39:40;4.90;99.90
52965;DHT22;42923;53.220;6.528;2024-03-17T04:42:06;5.40;99.90
52965;DHT22;42923;53.220;6.528;2024-03-17T04:44:32;5.00;99.90
52965;DHT22;42923;53.220;6.528;2024-03-17T04:46:58;5.00;99.90
52965;DHT22;42923;53.220;6.528;2024-03-17T04:49:24;5.10;99.90
52965;DHT22;42923;53.220;6.528;2024-03-17T04:51:49;5.10;99.90
52965;DHT22;42923;53.220;6.528;2024-03-17T04:54:15;5.10;99.90
52965;DHT22;42923;53.220;6.528;2024-03-17T04:56:41;6.80;99.90
52965;DHT22;42923;53.220;6.528;2024-03-17T04:59:07;5.00;99.90
52965;DHT22;42923;53.220;6.528;2024-03-17T05:01:32;5.10;99.90
52965;DHT22;42923;53.220;6.528;2024-03-17T05:04:05;5.10;99.90
52965;DHT22;42923;53.220;6.528;2024-03-17T05:06:31;5.10;99.90
52965;DHT22;42923;53.220;6.528;2024-03-17T05:08:57;5.10;99.90
52965;DHT22;42923;53.220;6.528;2024-03-17T05:11:23;5.10;99.90
52965;DHT22;42923;53.220;6.528;2024-03-17T05:13:49;5.20;99.90
52965;DHT22;42923;53.220;6.528;2024-03-17T05:16:15;5.10;99.90
52965;DHT22;42923;53.220;6.528;2024-03-17T05:18:41;5.20;99.90
52965;DHT22;42923;53.220;6.528;2024-03-17T05:21:07;5.10;99.90
52965;DHT22;42923;53.220;6.528;2024-03-17T05:23:35;5.30;99.90
52965;DHT22;42923;53.220;6.528;2024-03-17T05:26:03;5.20;99.90
52965;DHT22;42923;53.220;6.528;2024-03-17T05:28:30;5.20;99.90
52965;DHT22;42923;53.220;6.528;2024-03-17T05:30:56;5.30;99.90
52965;DHT22;42923;53.220;6.528;2024-03-17T05:33:23;5.20;99.90
52965;DHT22;42923;53.220;6.528;2024-03-17T05:35:57;6.30;99.90
52965;DHT22;42923;53.220;6.528;2024-03-17T05:38:26;5.30;99.90
52965;DHT22;42923;53.220;6.528;2024-03-17T05:41:03;5.20;99.90
52965;DHT22;42923;53.220;6.528;2024-03-17T05:43:37;5.30;99.90
52965;DHT22;42923;53.220;6.528;2024-03-17T05:46:07;5.30;99.90
52965;DHT22;42923;53.220;6.528;2024-03-17T05:48:38;5.30;99.90
52965;DHT22;42923;53.220;6.528;2024-03-17T05:51:05;5.30;99.90
52965;DHT22;42923;53.220;6.528;2024-03-17T05:53:31;6.30;99.90
52965;DHT22;42923;53.220;6.528;2024-03-17T05:56:03;5.30;99.90
52965;DHT22;42923;53.220;6.528;2024-03-17T05:58:30;5.30;99.90
52965;DHT22;42923;53.220;6.528;2024-03-17T06:00:56;6.50;99.90
52965;DHT22;42923;53.220;6.528;2024-03-17T06:03:22;5.20;99.90
52965;DHT22;42923;53.220;6.528;2024-03-17T06:05:48;5.30;99.90
52965;DHT22;42923;53.220;6.528;2024-03-17T06:08:14;6.10;99.90
52965;DHT22;42923;53.220;6.528;2024-03-17T06:10:45;5.30;99.90
52965;DHT22;42923;53.220;6.528;2024-03-17T06:13:12;6.40;99.90
52965;DHT22;42923;53.220;6.528;2024-03-17T06:15:39;5.30;99.90
52965;DHT22;42923;53.220;6.528;2024-03-17T06:18:05;7.00;99.90
52965;DHT22;42923;53.220;6.528;2024-03-17T06:20:34;5.50;99.90
52965;DHT22;42923;53.220;6.528;2024-03-17T06:23:00;5.50;99.90
52965;DHT22;42923;53.220;6.528;2024-03-17T06:25:26;5.60;99.90
52965;DHT22;42923;53.220;6.528;2024-03-17T06:27:53;5.30;99.90
52965;DHT22;42923;53.220;6.528;2024-03-17T06:30:20;5.80;99.90
52965;DHT22;42923;53.220;6.528;2024-03-17T06:32:46;5.90;99.90
52965;DHT22;42923;53.220;6.528;2024-03-17T06:35:15;5.90;99.90
52965;DHT22;42923;53.220;6.528;2024-03-17T06:37:42;6.00;99.90
52965;DHT22;42923;53.220;6.528;2024-03-17T06:40:13;6.10;99.90
52965;DHT22;42923;53.220;6.528;2024-03-17T06:42:39;6.20;99.90
52965;DHT22;42923;53.220;6.528;2024-03-17T06:45:06;6.20;99.90
52965;DHT22;42923;53.220;6.528;2024-03-17T06:47:37;6.30;99.90
52965;DHT22;42923;53.220;6.528;2024-03-17T06:50:04;6.40;99.90
52965;DHT22;42923;53.220;6.528;2024-03-17T06:52:30;6.40;99.90
52965;DHT22;42923;53.220;6.528;2024-03-17T06:54:59;6.50;99.90
52965;DHT22;42923;53.220;6.528;2024-03-17T06:57:25;6.50;99.90
52965;DHT22;42923;53.220;6.528;2024-03-17T06:59:51;6.60;99.90
52965;DHT22;42923;53.220;6.528;2024-03-17T07:02:16;6.70;99.90
52965;DHT22;42923;53.220;6.528;2024-03-17T07:04:47;6.80;99.90
52965;DHT22;42923;53.220;6.528;2024-03-17T07:07:13;6.90;99.90
52965;DHT22;42923;53.220;6.528;2024-03-17T07:09:40;7.00;99.90
52965;DHT22;42923;53.220;6.528;2024-03-17T07:12:10;7.20;99.90
52965;DHT22;42923;53.220;6.528;2024-03-17T07:14:36;7.40;99.90
52965;DHT22;42923;53.220;6.528;2024-03-17T07:17:03;7.60;99.90
52965;DHT22;42923;53.220;6.528;2024-03-17T07:19:29;7.80;99.90
52965;DHT22;42923;53.220;6.528;2024-03-17T07:21:57;8.50;99.90
52965;DHT22;42923;53.220;6.528;2024-03-17T07:24:23;7.90;99.90
52965;DHT22;42923;53.220;6.528;2024-03-17T07:26:49;8.00;99.90
52965;DHT22;42923;53.220;6.528;2024-03-17T07:29:15;8.10;99.90
52965;DHT22;42923;53.220;6.528;2024-03-17T07:31:41;8.20;99.90
52965;DHT22;42923;53.220;6.528;2024-03-17T07:34:07;8.60;99.90
52965;DHT22;42923;53.220;6.528;2024-03-17T07:36:32;8.60;99.90
52965;DHT22;42923;53.220;6.528;2024-03-17T07:38:58;8.10;99.90
52965;DHT22;42923;53.220;6.528;2024-03-17T07:41:24;8.10;99.90
52965;DHT22;42923;53.220;6.528;2024-03-17T07:43:50;8.10;99.90
52965;DHT22;42923;53.220;6.528;2024-03-17T07:46:16;8.10;99.90
52965;DHT22;42923;53.220;6.528;2024-03-17T07:48:43;8.30;99.90
52965;DHT22;42923;53.220;6.528;2024-03-17T07:53:37;8.10;99.90
52965;DHT22;42923;53.220;6.528;2024-03-17T07:56:08;8.10;99.90
52965;DHT22;42923;53.220;6.528;2024-03-17T07:58:39;8.10;99.90
52965;DHT22;42923;53.220;6.528;2024-03-17T08:01:07;9.20;99.90
52965;DHT22;42923;53.220;6.528;2024-03-17T08:03:35;9.10;99.90
52965;DHT22;42923;53.220;6.528;2024-03-17T08:06:05;8.20;99.90
52965;DHT22;42923;53.220;6.528;2024-03-17T08:08:31;8.20;99.90
52965;DHT22;42923;53.220;6.528;2024-03-17T08:10:58;8.30;99.90
52965;DHT22;42923;53.220;6.528;2024-03-17T08:13:24;8.40;99.90
52965;DHT22;42923;53.220;6.528;2024-03-17T08:16:07;10.60;99.90
52965;DHT22;42923;53.220;6.528;2024-03-17T08:18:34;8.40;99.90
52965;DHT22;42923;53.220;6.528;2024-03-17T08:21:03;8.50;99.90
52965;DHT22;42923;53.220;6.528;2024-03-17T08:23:30;8.60;99.90
52965;DHT22;42923;53.220;6.528;2024-03-17T08:25:57;8.70;99.90
52965;DHT22;42923;53.220;6.528;2024-03-17T08:28:24;8.70;99.90
52965;DHT22;42923;53.220;6.528;2024-03-17T08:30:54;9.70;99.90
52965;DHT22;42923;53.220;6.528;2024-03-17T08:33:21;8.70;99.90
52965;DHT22;42923;53.220;6.528;2024-03-17T08:35:58;8.80;99.90
52965;DHT22;42923;53.220;6.528;2024-03-17T08:38:25;9.00;99.90
52965;DHT22;42923;53.220;6.528;2024-03-17T08:40:52;9.10;99.90
52965;DHT22;42923;53.220;6.528;2024-03-17T08:43:19;9.20;99.90
52965;DHT22;42923;53.220;6.528;2024-03-17T08:45:57;9.20;99.90
52965;DHT22;42923;53.220;6.528;2024-03-17T08:48:26;9.20;99.90
52965;DHT22;42923;53.220;6.528;2024-03-17T08:50:52;9.20;99.90
52965;DHT22;42923;53.220;6.528;2024-03-17T08:53:19;9.30;99.90
52965;DHT22;42923;53.220;6.528;2024-03-17T08:55:45;9.30;99.90
52965;DHT22;42923;53.220;6.528;2024-03-17T08:58:11;10.00;99.90
52965;DHT22;42923;53.220;6.528;2024-03-17T09:00:36;9.40;99.90
52965;DHT22;42923;53.220;6.528;2024-03-17T09:03:03;9.50;99.90
52965;DHT22;42923;53.220;6.528;2024-03-17T09:05:29;9.60;99.90
52965;DHT22;42923;53.220;6.528;2024-03-17T09:07:54;9.70;99.90
52965;DHT22;42923;53.220;6.528;2024-03-17T09:10:21;9.90;99.90
52965;DHT22;42923;53.220;6.528;2024-03-17T09:12:47;10.10;99.90
52965;DHT22;42923;53.220;6.528;2024-03-17T09:15:13;10.20;99.90
52965;DHT22;42923;53.220;6.528;2024-03-17T09:17:40;10.40;99.90
52965;DHT22;42923;53.220;6.528;2024-03-17T09:20:06;10.60;99.90
52965;DHT22;42923;53.220;6.528;2024-03-17T09:22:38;10.80;99.90
52965;DHT22;42923;53.220;6.528;2024-03-17T09:25:07;11.00;99.90
52965;DHT22;42923;53.220;6.528;2024-03-17T09:27:34;11.10;99.90
52965;DHT22;42923;53.220;6.528;2024-03-17T09:30:03;11.20;99.90
52965;DHT22;42923;53.220;6.528;2024-03-17T09:32:32;11.30;99.90
52965;DHT22;42923;53.220;6.528;2024-03-17T09:34:58;11.40;99.90
52965;DHT22;42923;53.220;6.528;2024-03-17T09:37:25;11.40;99.90
52965;DHT22;42923;53.220;6.528;2024-03-17T09:39:50;11.40;99.90
52965;DHT22;42923;53.220;6.528;2024-03-17T09:42:19;11.50;99.90
52965;DHT22;42923;53.220;6.528;2024-03-17T09:44:48;11.60;99.90
52965;DHT22;42923;53.220;6.528;2024-03-17T09:47:20;11.70;99.90
52965;DHT22;42923;53.220;6.528;2024-03-17T09:49:47;12.40;99.90
52965;DHT22;42923;53.220;6.528;2024-03-17T09:52:23;12.10;99.90
52965;DHT22;42923;53.220;6.528;2024-03-17T09:55:01;12.30;99.90
52965;DHT22;42923;53.220;6.528;2024-03-17T09:57:27;12.10;99.90
52965;DHT22;42923;53.220;6.528;2024-03-17T09:59:54;12.90;99.90
52965;DHT22;42923;53.220;6.528;2024-03-17T10:02:21;11.80;99.90
52965;DHT22;42923;53.220;6.528;2024-03-17T10:04:47;12.30;99.90
52965;DHT22;42923;53.220;6.528;2024-03-17T10:07:13;12.00;99.90
52965;DHT22;42923;53.220;6.528;2024-03-17T10:09:43;11.90;99.90
52965;DHT22;42923;53.220;6.528;2024-03-17T10:12:28;11.70;99.90
52965;DHT22;42923;53.220;6.528;2024-03-17T10:14:58;11.20;99.90
52965;DHT22;42923;53.220;6.528;2024-03-17T10:17:32;11.10;99.90
52965;DHT22;42923;53.220;6.528;2024-03-17T10:20:11;11.10;99.90
52965;DHT22;42923;53.220;6.528;2024-03-17T10:22:38;11.00;99.90
52965;DHT22;42923;53.220;6.528;2024-03-17T10:25:04;11.10;99.90
52965;DHT22;42923;53.220;6.528;2024-03-17T10:27:31;11.10;99.90
52965;DHT22;42923;53.220;6.528;2024-03-17T10:29:57;11.00;99.90
52965;DHT22;42923;53.220;6.528;2024-03-17T10:32:23;11.00;99.90
52965;DHT22;42923;53.220;6.528;2024-03-17T10:34:51;11.00;99.90
52965;DHT22;42923;53.220;6.528;2024-03-17T10:37:18;11.30;99.90
52965;DHT22;42923;53.220;6.528;2024-03-17T10:39:53;11.10;99.90
52965;DHT22;42923;53.220;6.528;2024-03-17T10:42:27;11.10;99.90
52965;DHT22;42923;53.220;6.528;2024-03-17T10:45:01;11.10;99.90
52965;DHT22;42923;53.220;6.528;2024-03-17T10:47:33;11.10;99.90
52965;DHT22;42923;53.220;6.528;2024-03-17T10:50:00;11.10;99.90
52965;DHT22;42923;53.220;6.528;2024-03-17T10:52:34;11.40;99.90
52965;DHT22;42923;53.220;6.528;2024-03-17T10:55:04;11.80;99.90
52965;DHT22;42923;53.220;6.528;2024-03-17T11:00:08;11.20;99.90
52965;DHT22;42923;53.220;6.528;2024-03-17T11:02:35;11.20;99.90
52965;DHT22;42923;53.220;6.528;2024-03-17T11:05:16;11.20;99.90
52965;DHT22;42923;53.220;6.528;2024-03-17T11:07:44;11.20;99.90
52965;DHT22;42923;53.220;6.528;2024-03-17T11:10:21;11.60;99.90
52965;DHT22;42923;53.220;6.528;2024-03-17T11:12:53;11.30;99.90
52965;DHT22;42923;53.220;6.528;2024-03-17T11:20:36;11.50;99.90
52965;DHT22;42923;53.220;6.528;2024-03-17T11:23:02;11.50;99.90
52965;DHT22;42923;53.220;6.528;2024-03-17T11:28:01;11.60;99.90
52965;DHT22;42923;53.220;6.528;2024-03-17T11:30:49;11.80;99.90
52965;DHT22;42923;53.220;6.528;2024-03-17T11:38:55;11.90;99.90
52965;DHT22;42923;53.220;6.528;2024-03-17T11:41:40;11.90;99.90
52965;DHT22;42923;53.220;6.528;2024-03-17T11:46:45;11.80;99.90
52965;DHT22;42923;53.220;6.528;2024-03-17T11:51:45;11.70;99.90
52965;DHT22;42923;53.220;6.528;2024-03-17T11:54:35;11.60;99.90
52965;DHT22;42923;53.220;6.528;2024-03-17T11:59:34;11.60;99.90
52965;DHT22;42923;53.220;6.528;2024-03-17T12:02:00;12.20;99.90
52965;DHT22;42923;53.220;6.528;2024-03-17T12:04:28;11.70;99.90
52965;DHT22;42923;53.220;6.528;2024-03-17T12:06:58;11.80;99.90
52965;DHT22;42923;53.220;6.528;2024-03-17T12:09:25;13.40;99.90
52965;DHT22;42923;53.220;6.528;2024-03-17T12:11:58;11.90;99.90
52965;DHT22;42923;53.220;6.528;2024-03-17T12:14:24;11.90;99.90
52965;DHT22;42923;53.220;6.528;2024-03-17T12:17:00;12.10;99.90
52965;DHT22;42923;53.220;6.528;2024-03-17T12:19:27;12.20;99.90
52965;DHT22;42923;53.220;6.528;2024-03-17T12:21:55;13.20;99.90
52965;DHT22;42923;53.220;6.528;2024-03-17T12:24:25;12.30;99.90
52965;DHT22;42923;53.220;6.528;2024-03-17T12:26:55;12.40;99.90
52965;DHT22;42923;53.220;6.528;2024-03-17T12:29:22;12.40;99.90
52965;DHT22;42923;53.220;6.528;2024-03-17T12:31:50;13.10;99.90
52965;DHT22;42923;53.220;6.528;2024-03-17T12:34:16;12.40;99.90
52965;DHT22;42923;53.220;6.528;2024-03-17T12:36:42;12.50;99.90
52965;DHT22;42923;53.220;6.528;2024-03-17T12:39:19;12.60;99.90
52965;DHT22;42923;53.220;6.528;2024-03-17T12:44:27;14.10;99.90
52965;DHT22;42923;53.220;6.528;2024-03-17T12:46:57;13.80;99.90
52965;DHT22;42923;53.220;6.528;2024-03-17T12:49:23;12.90;99.90
52965;DHT22;42923;53.220;6.528;2024-03-17T12:51:52;12.90;99.90
52965;DHT22;42923;53.220;6.528;2024-03-17T12:54:23;12.90;99.90
52965;DHT22;42923;53.220;6.528;2024-03-17T12:56:51;13.00;99.90
52965;DHT22;42923;53.220;6.528;2024-03-17T12:59:42;13.30;99.90
52965;DHT22;42923;53.220;6.528;2024-03-17T13:02:26;13.10;99.90
52965;DHT22;42923;53.220;6.528;2024-03-17T13:05:07;13.80;99.90
52965;DHT22;42923;53.220;6.528;2024-03-17T13:07:33;13.40;99.90
52965;DHT22;42923;53.220;6.528;2024-03-17T13:09:59;13.50;99.90
52965;DHT22;42923;53.220;6.528;2024-03-17T13:12:25;13.50;99.90
52965;DHT22;42923;53.220;6.528;2024-03-17T13:14:51;14.30;99.90
52965;DHT22;42923;53.220;6.528;2024-03-17T13:17:17;13.30;99.90
52965;DHT22;42923;53.220;6.528;2024-03-17T13:19:47;13.10;99.90
52965;DHT22;42923;53.220;6.528;2024-03-17T13:22:13;13.50;99.90
52965;DHT22;42923;53.220;6.528;2024-03-17T13:24:39;12.80;99.90
52965;DHT22;42923;53.220;6.528;2024-03-17T13:27:05;13.40;99.90
52965;DHT22;42923;53.220;6.528;2024-03-17T13:29:35;12.60;99.90
52965;DHT22;42923;53.220;6.528;2024-03-17T13:32:04;12.60;99.90
52965;DHT22;42923;53.220;6.528;2024-03-17T13:34:31;12.60;99.90
52965;DHT22;42923;53.220;6.528;2024-03-17T13:36:57;12.50;99.90
52965;DHT22;42923;53.220;6.528;2024-03-17T13:39:31;12.50;99.90
52965;DHT22;42923;53.220;6.528;2024-03-17T13:41:59;12.50;99.90
52965;DHT22;42923;53.220;6.528;2024-03-17T13:44:32;12.60;99.90
52965;DHT22;42923;53.220;6.528;2024-03-17T13:46:59;12.60;99.90
52965;DHT22;42923;53.220;6.528;2024-03-17T13:49:27;12.60;99.90
52965;DHT22;42923;53.220;6.528;2024-03-17T13:51:54;12.60;99.90
52965;DHT22;42923;53.220;6.528;2024-03-17T13:54:20;12.60;99.90
52965;DHT22;42923;53.220;6.528;2024-03-17T13:56:47;12.60;99.90
52965;DHT22;42923;53.220;6.528;2024-03-17T13:59:14;12.60;99.90
52965;DHT22;42923;53.220;6.528;2024-03-17T14:01:40;12.60;99.90
52965;DHT22;42923;53.220;6.528;2024-03-17T14:04:13;12.50;99.90
52965;DHT22;42923;53.220;6.528;2024-03-17T14:06:41;12.50;99.90
52965;DHT22;42923;53.220;6.528;2024-03-17T14:09:06;12.50;99.90
52965;DHT22;42923;53.220;6.528;2024-03-17T14:11:35;12.40;99.90
52965;DHT22;42923;53.220;6.528;2024-03-17T14:14:01;13.10;99.90
52965;DHT22;42923;53.220;6.528;2024-03-17T14:16:29;12.40;99.90
52965;DHT22;42923;53.220;6.528;2024-03-17T14:18:57;12.50;99.90
52965;DHT22;42923;53.220;6.528;2024-03-17T14:21:23;12.50;99.90
52965;DHT22;42923;53.220;6.528;2024-03-17T14:23:48;12.60;99.90
52965;DHT22;42923;53.220;6.528;2024-03-17T14:26:14;12.60;99.90
52965;DHT22;42923;53.220;6.528;2024-03-17T14:28:40;12.70;99.90
52965;DHT22;42923;53.220;6.528;2024-03-17T14:31:06;13.00;99.90
52965;DHT22;42923;53.220;6.528;2024-03-17T14:33:32;12.70;99.90
52965;DHT22;42923;53.220;6.528;2024-03-17T14:35:57;12.70;99.90
52965;DHT22;42923;53.220;6.528;2024-03-17T14:38:23;12.70;99.90
52965;DHT22;42923;53.220;6.528;2024-03-17T14:40:51;12.70;99.90
52965;DHT22;42923;53.220;6.528;2024-03-17T14:43:17;12.70;99.90
52965;DHT22;42923;53.220;6.528;2024-03-17T14:45:43;12.70;99.90
52965;DHT22;42923;53.220;6.528;2024-03-17T14:48:08;12.60;99.90
52965;DHT22;42923;53.220;6.528;2024-03-17T14:50:39;12.50;99.90
52965;DHT22;42923;53.220;6.528;2024-03-17T14:53:05;12.50;99.90
52965;DHT22;42923;53.220;6.528;2024-03-17T14:55:31;12.40;99.90
52965;DHT22;42923;53.220;6.528;2024-03-17T14:57:57;12.30;99.90
52965;DHT22;42923;53.220;6.528;2024-03-17T15:00:23;13.10;99.90
52965;DHT22;42923;53.220;6.528;2024-03-17T15:02:51;12.30;99.90
52965;DHT22;42923;53.220;6.528;2024-03-17T15:05:17;12.90;99.90
52965;DHT22;42923;53.220;6.528;2024-03-17T15:07:47;12.10;99.90
52965;DHT22;42923;53.220;6.528;2024-03-17T15:10:16;12.30;99.90
52965;DHT22;42923;53.220;6.528;2024-03-17T15:12:46;12.60;99.90
52965;DHT22;42923;53.220;6.528;2024-03-17T15:15:12;12.10;99.90
52965;DHT22;42923;53.220;6.528;2024-03-17T15:17:38;12.10;99.90
52965;DHT22;42923;53.220;6.528;2024-03-17T15:20:04;12.10;99.90
52965;DHT22;42923;53.220;6.528;2024-03-17T15:22:50;12.10;99.90
52965;DHT22;42923;53.220;6.528;2024-03-17T15:25:18;12.00;99.90
52965;DHT22;42923;53.220;6.528;2024-03-17T15:27:46;12.00;99.90
52965;DHT22;42923;53.220;6.528;2024-03-17T15:30:13;12.00;99.90
52965;DHT22;42923;53.220;6.528;2024-03-17T15:32:47;12.00;99.90
52965;DHT22;42923;53.220;6.528;2024-03-17T15:35:13;12.00;99.90
52965;DHT22;42923;53.220;6.528;2024-03-17T15:37:41;12.10;99.90
52965;DHT22;42923;53.220;6.528;2024-03-17T15:40:10;12.00;99.90
52965;DHT22;42923;53.220;6.528;2024-03-17T15:42:45;12.10;99.90
52965;DHT22;42923;53.220;6.528;2024-03-17T15:45:12;12.10;99.90
52965;DHT22;42923;53.220;6.528;2024-03-17T15:47:38;12.10;99.90
52965;DHT22;42923;53.220;6.528;2024-03-17T15:50:04;12.10;99.90
52965;DHT22;42923;53.220;6.528;2024-03-17T15:52:30;12.00;99.90
52965;DHT22;42923;53.220;6.528;2024-03-17T15:54:56;12.10;99.90
52965;DHT22;42923;53.220;6.528;2024-03-17T15:57:22;12.10;99.90
52965;DHT22;42923;53.220;6.528;2024-03-17T15:59:51;12.10;99.90
52965;DHT22;42923;53.220;6.528;2024-03-17T16:02:19;12.10;99.90
52965;DHT22;42923;53.220;6.528;2024-03-17T16:04:46;12.20;99.90
52965;DHT22;42923;53.220;6.528;2024-03-17T16:07:12;12.20;99.90
52965;DHT22;42923;53.220;6.528;2024-03-17T16:09:38;12.10;99.90
52965;DHT22;42923;53.220;6.528;2024-03-17T16:12:04;12.10;99.90